Time;durP1;ratioP1;P1;durP2;ratioP2;P2;SDS_P1;SDS_P2;PMS_P1;PMS_P2;Temp;Humidity;BMP_temperature;BMP_pressure;BME280_temperature;BME280_humidity;BME280_pressure;Samples;Min_cycle;Max_cycle;Signal;HPM_P1;HPM_P2
2021/11/14 00:02:00;;;;;;;86.10;51.30;;;;;;;3.94;86.74;100800.66;87920;1286;92538;-71
2021/11/14 00:04:11;;;;;;;90.20;51.30;;;;;;;3.99;86.64;100798.23;87929;1288;81445;-70
2021/11/14 00:06:22;;;;;;;88.40;52.80;;;;;;;4.03;86.65;100793.83;87947;1288;82669;-72
2021/11/14 00:08:36;;;;;;;82.60;48.90;;;;;;;4.11;86.70;100790.59;87717;1286;97984;-72
2021/11/14 00:10:54;;;;;;;85.60;49.50;;;;;;;4.16;86.63;100792.43;87931;1291;88061;-71
2021/11/14 00:13:07;;;;;;;86.60;51.30;;;;;;;4.24;86.65;100792.08;87936;1289;95055;-72
2021/11/14 00:15:22;;;;;;;82.30;49.60;;;;;;;4.30;86.63;100795.50;87677;1290;79615;-72
2021/11/14 00:17:38;;;;;;;81.80;48.80;;;;;;;4.29;86.59;100793.60;87706;1290;80094;-70
2021/11/14 00:19:57;;;;;;;84.10;49.40;;;;;;;4.31;86.59;100791.04;87914;1288;100109;-71
2021/11/14 00:22:11;;;;;;;85.40;50.20;;;;;;;4.31;86.57;100794.95;87937;1292;89784;-72
2021/11/14 00:24:24;;;;;;;81.40;48.80;;;;;;;4.33;86.47;100799.48;87746;1292;93185;-70
2021/11/14 00:26:37;;;;;;;78.40;49.40;;;;;;;4.38;86.56;100798.64;87645;1296;81930;-72
2021/11/14 00:28:51;;;;;;;83.50;49.60;;;;;;;4.34;86.74;100800.77;87937;1284;81418;-71
2021/11/14 00:31:05;;;;;;;82.80;50.60;;;;;;;4.36;86.69;100802.17;87937;1290;98772;-72
2021/11/14 00:33:18;;;;;;;82.20;49.30;;;;;;;4.41;86.71;100803.29;87942;1291;89405;-71
2021/11/14 00:35:31;;;;;;;80.20;49.40;;;;;;;4.47;86.67;100807.56;87942;1290;94631;-71
2021/11/14 00:37:41;;;;;;;75.70;48.00;;;;;;;4.49;86.75;100807.94;87920;1290;82248;-73
2021/11/14 00:39:51;;;;;;;80.00;49.30;;;;;;;4.50;86.66;100812.51;87845;1291;81431;-71
2021/11/14 00:42:04;;;;;;;82.50;49.50;;;;;;;4.48;86.76;100811.64;87942;1291;100138;-70
2021/11/14 00:44:14;;;;;;;73.60;48.20;;;;;;;4.51;86.68;100809.95;87950;1290;87297;-70
2021/11/14 00:46:27;;;;;;;77.80;47.80;;;;;;;4.52;86.70;100809.27;87922;1289;94514;-71
2021/11/14 00:48:41;;;;;;;80.10;47.20;;;;;;;4.55;86.77;100808.21;87938;1285;82769;-70
2021/11/14 00:50:51;;;;;;;77.40;47.80;;;;;;;4.60;86.74;100806.23;87955;1288;82741;-70
2021/11/14 00:53:01;;;;;;;79.40;46.70;;;;;;;4.62;86.71;100804.89;87926;1285;100272;-70
2021/11/14 00:55:14;;;;;;;76.60;46.20;;;;;;;4.64;86.65;100808.15;87951;1290;88902;-71
2021/11/14 00:57:27;;;;;;;76.80;48.90;;;;;;;4.65;86.75;100803.79;87968;1286;93146;-71
2021/11/14 00:59:37;;;;;;;68.90;40.50;;;;;;;4.61;86.72;100804.81;87895;1288;79450;-71
2021/11/14 01:01:46;;;;;;;81.80;49.30;;;;;;;4.62;86.71;100805.86;87923;1288;82773;-70
2021/11/14 01:03:57;;;;;;;81.10;48.50;;;;;;;4.62;86.69;100806.89;87930;1291;99717;-71
2021/11/14 01:06:07;;;;;;;80.80;48.20;;;;;;;4.62;86.71;100807.41;87834;1290;86351;-72
2021/11/14 01:08:17;;;;;;;80.00;47.90;;;;;;;4.64;86.73;100812.62;87950;1288;94107;-71
2021/11/14 01:10:29;;;;;;;82.40;48.50;;;;;;;4.65;86.73;100810.70;87955;1290;79672;-71
2021/11/14 01:12:42;;;;;;;81.60;47.90;;;;;;;4.68;86.71;100811.52;87873;1290;82572;-72
2021/11/14 01:14:54;;;;;;;76.40;47.90;;;;;;;4.67;86.68;100807.00;87944;1283;96800;-71
2021/11/14 01:17:07;;;;;;;79.40;47.70;;;;;;;4.65;86.73;100806.77;87976;1290;87790;-70
2021/11/14 01:19:17;;;;;;;79.40;47.90;;;;;;;4.68;86.94;100805.98;87907;1291;93901;-71
2021/11/14 01:21:27;;;;;;;86.40;49.00;;;;;;;4.72;86.99;100806.86;87890;1288;82068;-70
2021/11/14 01:23:38;;;;;;;87.00;49.50;;;;;;;4.77;86.94;100808.20;87975;1287;81977;-70
2021/11/14 01:25:49;;;;;;;92.10;51.30;;;;;;;4.81;86.95;100805.11;87921;1285;98200;-70
2021/11/14 01:27:59;;;;;;;84.70;49.00;;;;;;;4.85;86.95;100808.17;87898;1288;87550;-70
2021/11/14 01:30:13;;;;;;;85.90;49.00;;;;;;;4.86;87.07;100806.67;87829;1291;97679;-70
2021/11/14 01:32:23;;;;;;;90.70;49.00;;;;;;;4.89;86.92;100808.68;87898;1288;81670;-72
2021/11/14 01:34:34;;;;;;;90.50;50.10;;;;;;;4.95;87.00;100811.86;87940;1288;79740;-72
2021/11/14 01:36:46;;;;;;;93.80;50.90;;;;;;;4.99;87.05;100814.30;87950;1288;100019;-72
2021/11/14 01:38:58;;;;;;;87.20;49.40;;;;;;;5.03;87.09;100818.17;87955;1284;88917;-71
2021/11/14 01:41:13;;;;;;;90.00;48.80;;;;;;;5.07;87.08;100812.81;87910;1291;95103;-71
2021/11/14 01:43:26;;;;;;;88.90;50.70;;;;;;;5.04;87.06;100816.47;87928;1290;78960;-71
2021/11/14 01:45:36;;;;;;;89.70;50.90;;;;;;;5.05;87.06;100814.61;87998;1288;80807;-71
2021/11/14 01:47:47;;;;;;;89.60;50.80;;;;;;;5.07;87.08;100812.26;87869;1288;99193;-71
2021/11/14 01:49:59;;;;;;;90.20;50.60;;;;;;;5.09;87.07;100817.40;87882;1288;88313;-71
2021/11/14 01:52:20;;;;;;;91.60;53.50;;;;;;;5.11;86.99;100819.21;87913;1285;95864;-71
2021/11/14 01:54:30;;;;;;;96.50;51.60;;;;;;;5.13;87.10;100822.09;87938;1290;78894;-71
2021/11/14 01:56:38;;;;;;;99.60;53.50;;;;;;;5.12;87.18;100821.98;87905;1288;81087;-70
2021/11/14 01:58:49;;;;;;;102.90;53.20;;;;;;;5.16;87.13;100824.31;87904;1290;99351;-70
2021/11/14 02:01:08;;;;;;;94.80;51.30;;;;;;;5.20;87.12;100820.39;87915;1288;87409;-71
2021/11/14 02:03:18;;;;;;;98.40;53.90;;;;;;;5.21;87.03;100828.11;87889;1290;93840;-71
2021/11/14 02:05:30;;;;;;;94.90;50.00;;;;;;;5.20;87.06;100831.17;87928;1290;82351;-71
2021/11/14 02:07:40;;;;;;;93.70;50.30;;;;;;;5.21;86.98;100829.53;87941;1290;82663;-71
2021/11/14 02:09:49;;;;;;;93.10;50.10;;;;;;;5.19;86.99;100831.81;87890;1289;99644;-71
2021/11/14 02:12:02;;;;;;;90.90;50.00;;;;;;;5.17;87.00;100834.73;87945;1290;88693;-71
2021/11/14 02:14:11;;;;;;;78.60;47.30;;;;;;;5.15;86.91;100837.93;87934;1288;94678;-71
2021/11/14 02:16:23;;;;;;;82.30;47.20;;;;;;;5.14;86.92;100840.51;87956;1290;80837;-70
2021/11/14 02:18:35;;;;;;;85.90;48.00;;;;;;;5.17;86.98;100836.67;87955;1288;81241;-71
2021/11/14 02:20:50;;;;;;;84.00;48.50;;;;;;;5.15;86.93;100839.56;87921;1291;99355;-71
2021/11/14 02:23:00;;;;;;;88.30;52.50;;;;;;;5.13;86.93;100840.13;87975;1284;86011;-71
2021/11/14 02:25:15;;;;;;;78.40;47.00;;;;;;;5.09;87.01;100839.92;87909;1290;94652;-71
2021/11/14 02:27:27;;;;;;;81.50;48.90;;;;;;;5.07;86.88;100844.10;87948;1288;79567;-71
2021/11/14 02:29:40;;;;;;;81.40;48.90;;;;;;;5.08;86.84;100839.70;87920;1284;82840;-71
2021/11/14 02:31:50;;;;;;;85.20;48.60;;;;;;;5.02;86.87;100841.15;87920;1288;100229;-71
2021/11/14 02:34:01;;;;;;;82.40;46.60;;;;;;;4.97;86.88;100839.36;87946;1288;88761;-71
2021/11/14 02:36:13;;;;;;;95.00;50.20;;;;;;;4.95;87.11;100845.61;87836;1288;93002;-71
2021/11/14 02:38:23;;;;;;;96.50;48.20;;;;;;;4.98;87.05;100846.14;87857;1290;81356;-71
2021/11/14 02:40:36;;;;;;;91.80;51.00;;;;;;;4.87;87.44;100844.39;87850;1289;82562;-71
2021/11/14 02:42:49;;;;;;;103.30;52.50;;;;;;;4.78;87.43;100842.19;87839;1290;98618;-71
2021/11/14 02:44:58;;;;;;;100.40;51.60;;;;;;;4.83;87.31;100840.98;87771;1290;87582;-71
2021/11/14 02:47:08;;;;;;;96.20;50.50;;;;;;;4.86;87.24;100841.79;87858;1290;95375;-71
2021/11/14 02:49:20;;;;;;;89.00;49.70;;;;;;;4.88;87.22;100844.27;87858;1290;82377;-71
2021/11/14 02:51:32;;;;;;;86.50;47.90;;;;;;;4.89;87.25;100848.14;87940;1283;81909;-70
2021/11/14 02:53:45;;;;;;;77.00;45.80;;;;;;;4.90;87.15;100845.89;87973;1287;99062;-71
2021/11/14 02:55:58;;;;;;;80.50;46.30;;;;;;;4.89;87.17;100850.23;87984;1288;87488;-71
2021/11/14 02:58:09;;;;;;;80.30;46.60;;;;;;;4.87;87.15;100851.70;87890;1286;94461;-71
2021/11/14 03:00:23;;;;;;;80.10;46.10;;;;;;;4.86;87.16;100855.92;87925;1288;80437;-71
2021/11/14 03:02:32;;;;;;;82.90;46.60;;;;;;;4.85;87.19;100853.34;88010;1288;83114;-72
2021/11/14 03:04:45;;;;;;;98.10;50.10;;;;;;;4.79;87.18;100857.20;87969;1287;99424;-72
2021/11/14 03:06:56;;;;;;;87.60;49.90;;;;;;;4.77;87.21;100859.23;87995;1287;86768;-71
2021/11/14 03:09:08;;;;;;;85.60;46.00;;;;;;;4.74;87.24;100860.73;87959;1288;95883;-71
2021/11/14 03:11:19;;;;;;;89.50;49.10;;;;;;;4.74;87.23;100865.02;87942;1287;79646;-72
2021/11/14 03:13:31;;;;;;;94.60;51.00;;;;;;;4.72;87.23;100867.81;87835;1291;81109;-71
2021/11/14 03:15:47;;;;;;;91.40;50.00;;;;;;;4.71;87.25;100869.90;87830;1291;99679;-72
2021/11/14 03:17:59;;;;;;;83.50;46.20;;;;;;;4.70;87.24;100867.81;87954;1288;89485;-72
2021/11/14 03:20:10;;;;;;;89.50;48.50;;;;;;;4.69;87.33;100870.09;87987;1288;95450;-72
2021/11/14 03:22:23;;;;;;;89.60;47.30;;;;;;;4.67;87.33;100870.43;87995;1287;81827;-71
2021/11/14 03:24:35;;;;;;;90.50;47.30;;;;;;;4.67;87.47;100873.16;87995;1287;80819;-71
2021/11/14 03:26:45;;;;;;;86.50;47.40;;;;;;;4.68;87.53;100873.36;87965;1280;98094;-70
2021/11/14 03:28:57;;;;;;;82.80;48.00;;;;;;;4.70;87.52;100874.13;87998;1287;88544;-71
2021/11/14 03:31:09;;;;;;;87.40;47.60;;;;;;;4.72;87.51;100876.44;87962;1288;94616;-71
2021/11/14 03:33:19;;;;;;;87.60;48.10;;;;;;;4.73;87.56;100876.47;87984;1287;79512;-72
2021/11/14 03:35:37;;;;;;;85.70;46.90;;;;;;;4.74;87.53;100873.04;88007;1285;80223;-70
2021/11/14 03:37:49;;;;;;;84.70;47.40;;;;;;;4.73;87.57;100869.55;88014;1287;100121;-72
2021/11/14 03:39:58;;;;;;;89.80;48.70;;;;;;;4.73;87.51;100869.53;87996;1287;88295;-71
2021/11/14 03:42:08;;;;;;;92.20;50.00;;;;;;;4.75;87.52;100869.58;87988;1287;93290;-70
2021/11/14 03:44:17;;;;;;;88.70;51.50;;;;;;;4.77;87.48;100870.98;87961;1285;77834;-71
2021/11/14 03:46:28;;;;;;;84.30;47.90;;;;;;;4.77;87.51;100873.25;87996;1287;82543;-70
2021/11/14 03:48:40;;;;;;;88.10;51.70;;;;;;;4.76;87.54;100872.86;87969;1287;99908;-71
2021/11/14 03:50:50;;;;;;;91.10;50.10;;;;;;;4.75;87.54;100874.33;87998;1285;89424;-72
2021/11/14 03:52:59;;;;;;;80.40;47.00;;;;;;;4.76;87.59;100877.32;87967;1288;95219;-71
2021/11/14 03:55:11;;;;;;;89.70;52.20;;;;;;;4.78;87.63;100883.77;87958;1285;80222;-70
2021/11/14 03:57:20;;;;;;;84.60;47.50;;;;;;;4.78;87.55;100886.55;87959;1287;81126;-70
2021/11/14 03:59:33;;;;;;;87.50;50.10;;;;;;;4.79;87.50;100886.20;87945;1287;97875;-70
2021/11/14 04:01:42;;;;;;;92.70;51.20;;;;;;;4.79;87.53;100892.20;87978;1287;89637;-71
2021/11/14 04:03:53;;;;;;;88.00;48.70;;;;;;;4.79;87.56;100893.66;87941;1288;96050;-70
2021/11/14 04:06:03;;;;;;;94.20;49.70;;;;;;;4.79;87.59;100891.85;87986;1287;79599;-70
2021/11/14 04:08:16;;;;;;;97.30;52.40;;;;;;;4.81;87.61;100893.49;87948;1287;82707;-70
2021/11/14 04:10:26;;;;;;;97.70;52.50;;;;;;;4.79;87.64;100892.05;87956;1287;98599;-70
2021/11/14 04:12:37;;;;;;;107.40;53.50;;;;;;;4.81;87.60;100894.03;87978;1287;86593;-71
2021/11/14 04:14:50;;;;;;;97.30;50.70;;;;;;;4.82;87.69;100894.76;87975;1287;95270;-71
2021/11/14 04:17:00;;;;;;;97.80;53.10;;;;;;;4.82;87.74;100895.35;87927;1290;81860;-71
2021/11/14 04:19:10;;;;;;;103.20;53.80;;;;;;;4.82;87.74;100901.18;87903;1290;81768;-70
2021/11/14 04:21:19;;;;;;;99.60;54.00;;;;;;;4.82;87.80;100902.12;87976;1287;99812;-73
2021/11/14 04:23:31;;;;;;;97.40;51.80;;;;;;;4.85;87.78;100905.73;87900;1288;87242;-71
2021/11/14 04:25:42;;;;;;;99.70;50.90;;;;;;;4.87;87.78;100906.26;87997;1287;95042;-71
2021/11/14 04:27:52;;;;;;;94.40;52.20;;;;;;;4.87;87.70;100908.41;87918;1290;78394;-71
2021/11/14 04:30:10;;;;;;;107.40;55.10;;;;;;;4.87;87.78;100907.35;87956;1287;80929;-70
2021/11/14 04:32:22;;;;;;;102.00;52.10;;;;;;;4.86;87.80;100907.98;87975;1285;99205;-71
2021/11/14 04:34:31;;;;;;;97.70;51.80;;;;;;;4.86;87.83;100909.61;87995;1287;88013;-70
2021/11/14 04:36:44;;;;;;;100.40;52.60;;;;;;;4.84;87.79;100911.38;87957;1287;94396;-70
2021/11/14 04:38:53;;;;;;;104.50;53.90;;;;;;;4.82;87.86;100913.49;87974;1283;80199;-70
2021/11/14 04:41:03;;;;;;;104.20;51.70;;;;;;;4.84;87.85;100914.25;87968;1287;82779;-71
2021/11/14 04:43:17;;;;;;;102.30;53.50;;;;;;;4.84;87.96;100914.98;87951;1287;98383;-70
2021/11/14 04:45:27;;;;;;;104.90;52.60;;;;;;;4.85;87.88;100913.25;88001;1285;88006;-70
2021/11/14 04:47:37;;;;;;;103.20;51.60;;;;;;;4.85;88.01;100913.08;87992;1287;95903;-70
2021/11/14 04:49:49;;;;;;;97.10;51.90;;;;;;;4.86;88.01;100913.36;87993;1287;82102;-69
2021/11/14 04:52:04;;;;;;;95.10;50.40;;;;;;;4.86;88.01;100918.70;87992;1287;81321;-70
2021/11/14 04:54:13;;;;;;;105.00;51.90;;;;;;;4.87;87.96;100925.89;87998;1285;100335;-71
2021/11/14 04:56:22;;;;;;;92.30;50.00;;;;;;;4.89;88.01;100922.88;87822;1287;229302;-73
2021/11/14 04:58:34;;;;;;;100.90;53.20;;;;;;;4.92;88.01;100926.38;87963;1287;95594;-73
2021/11/14 05:00:48;;;;;;;100.60;50.50;;;;;;;4.93;87.94;100928.34;87991;1287;79761;-68
2021/11/14 05:02:59;;;;;;;100.50;50.20;;;;;;;4.94;88.01;100933.64;87812;1290;82069;-71
2021/11/14 05:05:10;;;;;;;96.80;49.10;;;;;;;4.98;88.00;100935.82;87991;1287;100450;-71
2021/11/14 05:07:23;;;;;;;99.30;49.40;;;;;;;4.99;87.92;100945.84;87941;1291;87949;-72
2021/11/14 05:09:32;;;;;;;98.30;49.10;;;;;;;5.04;87.90;100944.70;87980;1287;93805;-71
2021/11/14 05:11:41;;;;;;;91.70;48.40;;;;;;;5.02;87.96;100945.02;88009;1289;79927;-70
2021/11/14 05:13:50;;;;;;;92.60;46.60;;;;;;;5.03;87.94;100952.95;87962;1287;81103;-71
2021/11/14 05:16:02;;;;;;;96.50;46.40;;;;;;;4.92;87.98;100956.52;87964;1275;97262;-73
2021/11/14 05:18:12;;;;;;;97.40;47.10;;;;;;;4.90;87.89;100960.25;88000;1287;87221;-71
2021/11/14 05:20:25;;;;;;;98.80;50.50;;;;;;;4.88;87.88;100960.61;87986;1287;95806;-71
2021/11/14 05:22:37;;;;;;;89.50;45.90;;;;;;;4.86;87.81;100964.22;87986;1287;81453;-71
2021/11/14 05:24:46;;;;;;;97.10;47.20;;;;;;;4.82;87.91;100964.06;87955;1287;81954;-71
2021/11/14 05:26:58;;;;;;;94.40;47.60;;;;;;;4.80;87.98;100973.84;87955;1288;97964;-71
2021/11/14 05:29:11;;;;;;;97.20;47.00;;;;;;;4.77;87.95;100966.77;87972;1285;87061;-72
2021/11/14 05:31:20;;;;;;;92.20;48.40;;;;;;;4.84;87.99;100967.26;87957;1288;94634;-71
2021/11/14 05:33:33;;;;;;;89.20;45.90;;;;;;;4.83;87.89;100970.02;87989;1283;80609;-72
2021/11/14 05:35:43;;;;;;;96.20;45.90;;;;;;;4.84;87.89;100973.65;87988;1287;83616;-71
2021/11/14 05:37:52;;;;;;;93.50;46.70;;;;;;;4.87;87.86;100974.77;87988;1280;97611;-71
2021/11/14 05:40:04;;;;;;;89.50;44.60;;;;;;;4.93;87.88;100978.71;88008;1287;89166;-72
2021/11/14 05:42:14;;;;;;;92.80;45.60;;;;;;;4.88;87.89;100987.55;88005;1288;95437;-72
2021/11/14 05:44:26;;;;;;;86.30;43.10;;;;;;;4.84;87.89;100987.02;87999;1287;78383;-71
2021/11/14 05:46:38;;;;;;;84.90;43.60;;;;;;;4.83;87.94;100984.44;88018;1287;82414;-71
2021/11/14 05:48:50;;;;;;;90.40;45.30;;;;;;;4.82;87.88;100987.59;88032;1287;99184;-71
2021/11/14 05:51:03;;;;;;;90.20;46.40;;;;;;;4.85;87.84;100990.36;87917;1286;86345;-71
2021/11/14 05:53:15;;;;;;;87.40;44.40;;;;;;;4.82;87.77;100992.02;87939;1290;95388;-71
2021/11/14 05:55:24;;;;;;;90.70;43.90;;;;;;;4.79;87.82;100994.80;88014;1287;81636;-72
2021/11/14 05:57:42;;;;;;;91.60;45.20;;;;;;;4.82;87.75;100991.55;87998;1287;80027;-72
2021/11/14 05:59:57;;;;;;;86.20;44.60;;;;;;;4.84;87.68;100993.45;87969;1283;99044;-72
2021/11/14 06:02:13;;;;;;;92.20;45.20;;;;;;;4.80;87.72;100991.64;87974;1287;88643;-72
2021/11/14 06:04:30;;;;;;;90.70;44.90;;;;;;;4.81;87.75;100995.56;87978;1287;94777;-72
2021/11/14 06:06:42;;;;;;;88.70;44.70;;;;;;;4.85;87.79;100999.99;87966;1288;83055;-72
2021/11/14 06:08:53;;;;;;;92.90;46.80;;;;;;;4.87;87.67;101004.27;87991;1287;80755;-72
2021/11/14 06:11:03;;;;;;;86.90;45.40;;;;;;;4.89;87.65;101007.11;87976;1288;98497;-71
2021/11/14 06:13:12;;;;;;;87.80;44.90;;;;;;;4.92;87.65;101008.97;88004;1287;88191;-71
2021/11/14 06:15:22;;;;;;;85.70;45.10;;;;;;;4.95;87.62;101015.59;87986;1287;94546;-72
2021/11/14 06:17:31;;;;;;;74.40;41.80;;;;;;;4.90;87.52;101020.21;88039;1287;79045;-72
2021/11/14 06:19:40;;;;;;;84.30;43.50;;;;;;;4.87;87.56;101024.91;87984;1287;83033;-70
2021/11/14 06:21:52;;;;;;;80.50;42.90;;;;;;;4.88;87.59;101021.99;88026;1287;98483;-71
2021/11/14 06:24:01;;;;;;;85.10;45.10;;;;;;;4.88;87.58;101023.61;87987;1285;87870;-72
2021/11/14 06:26:11;;;;;;;87.90;41.90;;;;;;;4.88;87.49;101028.80;87587;1293;97425;-71
2021/11/14 06:28:23;;;;;;;82.50;42.40;;;;;;;4.84;87.50;101033.94;87739;1290;80895;-72
2021/11/14 06:30:42;;;;;;;86.20;45.40;;;;;;;4.84;87.51;101035.44;87947;1285;80135;-71
2021/11/14 06:32:54;;;;;;;83.30;42.80;;;;;;;4.82;87.49;101041.61;88000;1287;99759;-72
2021/11/14 06:35:08;;;;;;;84.00;42.90;;;;;;;4.81;87.54;101043.19;87930;1290;89153;-72
2021/11/14 06:37:17;;;;;;;88.20;43.20;;;;;;;4.78;87.54;101045.77;88031;1287;95169;-71
2021/11/14 06:39:26;;;;;;;84.40;42.40;;;;;;;4.73;87.67;101043.66;88004;1287;79667;-73
2021/11/14 06:41:38;;;;;;;89.10;43.10;;;;;;;4.70;87.68;101049.34;88003;1287;82307;-71
2021/11/14 06:43:47;;;;;;;89.80;43.50;;;;;;;4.72;87.65;101054.46;87989;1287;98899;-70
2021/11/14 06:45:56;;;;;;;84.10;43.30;;;;;;;4.73;87.61;101052.92;87998;1288;87323;-71
2021/11/14 06:48:06;;;;;;;79.20;40.90;;;;;;;4.74;87.62;101056.63;87953;1283;92023;-72
2021/11/14 06:50:16;;;;;;;81.50;42.70;;;;;;;4.73;87.69;101062.79;87996;1289;82198;-72
2021/11/14 06:52:25;;;;;;;88.50;43.30;;;;;;;4.70;87.71;101066.05;88023;1287;82778;-72
2021/11/14 06:54:37;;;;;;;81.10;42.10;;;;;;;4.67;87.78;101070.82;87934;1290;99503;-70
2021/11/14 06:56:46;;;;;;;88.80;44.20;;;;;;;4.65;87.69;101069.91;87971;1287;88335;-72
2021/11/14 06:58:55;;;;;;;82.50;45.00;;;;;;;4.66;87.71;101074.11;87971;1287;95265;-72
2021/11/14 07:01:07;;;;;;;85.30;44.30;;;;;;;4.66;87.72;101079.06;88004;1285;80207;-71
2021/11/14 07:03:20;;;;;;;88.30;43.60;;;;;;;4.69;87.64;101082.77;87935;1286;80770;-72
2021/11/14 07:05:30;;;;;;;89.40;42.90;;;;;;;4.68;87.69;101086.21;87983;1287;99899;-72
2021/11/14 07:07:40;;;;;;;84.80;42.80;;;;;;;4.69;87.79;101088.83;87993;1287;88485;-70
2021/11/14 07:09:49;;;;;;;85.60;43.80;;;;;;;4.71;87.76;101091.52;87975;1285;95822;-71
2021/11/14 07:11:59;;;;;;;83.60;42.80;;;;;;;4.73;87.79;101089.19;88008;1287;81326;-71
2021/11/14 07:14:08;;;;;;;81.50;42.10;;;;;;;4.71;87.80;101093.66;88008;1287;80287;-71
2021/11/14 07:16:17;;;;;;;85.50;42.90;;;;;;;4.72;87.83;101100.31;88024;1287;98215;-71
2021/11/14 07:18:27;;;;;;;86.50;44.60;;;;;;;4.70;87.92;101101.92;88007;1287;88033;-71
2021/11/14 07:20:36;;;;;;;79.20;40.80;;;;;;;4.71;87.93;101102.70;87983;1287;95358;-71
2021/11/14 07:22:46;;;;;;;86.60;43.70;;;;;;;4.71;87.93;101108.98;87984;1287;78868;-71
2021/11/14 07:24:56;;;;;;;75.70;42.70;;;;;;;4.73;87.95;101110.45;87990;1285;80568;-72
2021/11/14 07:27:06;;;;;;;79.20;41.90;;;;;;;4.76;87.99;101110.02;87996;1278;96270;-72
2021/11/14 07:29:15;;;;;;;74.60;39.90;;;;;;;4.75;88.06;101115.40;88015;1280;87655;-72
2021/11/14 07:31:24;;;;;;;80.60;42.60;;;;;;;4.75;88.07;101111.82;87973;1290;95875;-71
2021/11/14 07:33:33;;;;;;;75.70;41.90;;;;;;;4.79;88.05;101116.29;87987;1284;79594;-71
2021/11/14 07:35:42;;;;;;;72.90;42.20;;;;;;;4.78;88.04;101116.54;87977;1284;80685;-72
2021/11/14 07:37:51;;;;;;;79.20;42.20;;;;;;;4.77;88.04;101118.67;88011;1287;98960;-73
2021/11/14 07:40:00;;;;;;;79.20;42.70;;;;;;;4.74;88.01;101114.60;87901;1290;91086;-71
2021/11/14 07:42:11;;;;;;;76.20;41.00;;;;;;;4.74;87.97;101121.88;87967;1287;95473;-72
2021/11/14 07:44:20;;;;;;;79.40;41.40;;;;;;;4.72;87.99;101118.67;87973;1291;79777;-72
2021/11/14 07:46:32;;;;;;;82.90;41.90;;;;;;;4.72;88.02;101119.80;88020;1287;82653;-71
2021/11/14 07:48:44;;;;;;;78.70;41.80;;;;;;;4.71;87.97;101120.76;87988;1287;99021;-71
2021/11/14 07:50:54;;;;;;;80.10;42.60;;;;;;;4.73;87.99;101124.31;87947;1279;87154;-71
2021/11/14 07:53:06;;;;;;;79.40;42.00;;;;;;;4.73;87.96;101128.43;87997;1284;94208;-71
2021/11/14 07:55:16;;;;;;;77.80;41.20;;;;;;;4.74;88.02;101127.77;87824;1290;79993;-73
2021/11/14 07:57:25;;;;;;;80.70;41.30;;;;;;;4.78;88.01;101129.24;88001;1288;83123;-72
2021/11/14 07:59:34;;;;;;;74.80;41.10;;;;;;;4.76;88.02;101130.45;87983;1287;97863;-73
2021/11/14 08:01:43;;;;;;;79.70;41.70;;;;;;;4.77;87.97;101130.56;88011;1287;87231;-70
2021/11/14 08:03:52;;;;;;;76.10;40.10;;;;;;;4.79;87.96;101135.61;87995;1287;95676;-71
2021/11/14 08:06:02;;;;;;;75.90;40.70;;;;;;;4.84;87.90;101140.34;88008;1291;80965;-72
2021/11/14 08:08:12;;;;;;;76.40;41.90;;;;;;;4.87;87.87;101142.18;88003;1294;82536;-72
2021/11/14 08:10:23;;;;;;;82.90;44.60;;;;;;;4.88;87.82;101145.65;88022;1283;98731;-73
2021/11/14 08:12:37;;;;;;;81.70;40.90;;;;;;;4.89;87.80;101147.77;87991;1287;87609;-72
2021/11/14 08:14:46;;;;;;;81.70;43.00;;;;;;;4.89;87.87;101149.33;87985;1288;95652;-73
2021/11/14 08:16:55;;;;;;;78.00;42.30;;;;;;;4.89;87.89;101153.60;87964;1287;78614;-75
2021/11/14 08:19:07;;;;;;;80.50;43.30;;;;;;;4.89;87.89;101156.16;87984;1288;80880;-72
2021/11/14 08:21:16;;;;;;;74.40;39.70;;;;;;;4.87;87.92;101157.52;88021;1287;98555;-74
2021/11/14 08:23:26;;;;;;;73.00;40.10;;;;;;;4.90;87.89;101160.71;87955;1289;88854;-71
2021/11/14 08:25:39;;;;;;;80.60;42.30;;;;;;;4.88;87.89;101161.57;87941;1290;93358;-71
2021/11/14 08:27:49;;;;;;;76.60;40.90;;;;;;;4.89;87.89;101166.13;87966;1287;79791;-71
2021/11/14 08:30:06;;;;;;;75.40;40.80;;;;;;;4.92;88.02;101170.34;87734;1296;81543;-71
2021/11/14 08:32:18;;;;;;;75.90;42.10;;;;;;;4.91;87.96;101170.72;88017;1287;98676;-72
2021/11/14 08:34:30;;;;;;;75.90;42.20;;;;;;;4.93;88.02;101174.50;87972;1287;86927;-74
2021/11/14 08:36:39;;;;;;;78.80;41.50;;;;;;;4.97;87.98;101177.36;87977;1287;95782;-74
2021/11/14 08:38:52;;;;;;;83.50;43.80;;;;;;;5.01;88.03;101179.30;87988;1291;81325;-74
2021/11/14 08:41:02;;;;;;;84.40;46.60;;;;;;;5.07;87.96;101183.59;88001;1287;82091;-73
2021/11/14 08:43:15;;;;;;;84.30;46.20;;;;;;;5.12;87.85;101184.79;87994;1287;99987;-73
2021/11/14 08:45:31;;;;;;;72.60;41.90;;;;;;;5.13;87.88;101185.89;87955;1287;87678;-71
2021/11/14 08:47:43;;;;;;;73.00;40.20;;;;;;;5.17;87.78;101191.59;87927;1291;95135;-73
2021/11/14 08:49:52;;;;;;;60.40;36.20;;;;;;;5.17;87.81;101191.23;87991;1285;79750;-71
2021/11/14 08:52:05;;;;;;;66.10;38.30;;;;;;;5.18;87.67;101191.35;87987;1287;80191;-71
2021/11/14 08:54:15;;;;;;;55.80;36.00;;;;;;;5.21;87.33;101195.75;88003;1291;100197;-72
2021/11/14 08:56:24;;;;;;;64.30;37.80;;;;;;;5.18;87.17;101197.64;88022;1287;88416;-72
2021/11/14 08:58:39;;;;;;;63.70;37.50;;;;;;;5.23;87.28;101203.73;87947;1285;93429;-71
2021/11/14 09:00:49;;;;;;;71.90;38.50;;;;;;;5.25;87.39;101199.30;87991;1288;81436;-72
2021/11/14 09:03:00;;;;;;;69.00;40.10;;;;;;;5.25;87.36;101205.55;87998;1287;81640;-72
2021/11/14 09:05:13;;;;;;;68.60;39.00;;;;;;;5.29;87.29;101205.70;88029;1283;99370;-73
2021/11/14 09:07:26;;;;;;;73.30;40.00;;;;;;;5.33;87.15;101208.18;88044;1287;88381;-73
2021/11/14 09:09:36;;;;;;;65.60;39.10;;;;;;;5.35;87.25;101208.39;87991;1287;95416;-73
2021/11/14 09:11:47;;;;;;;67.60;38.70;;;;;;;5.36;87.26;101210.76;88001;1287;81461;-73
2021/11/14 09:13:56;;;;;;;75.30;42.10;;;;;;;5.42;87.25;101209.41;88004;1288;82400;-72
2021/11/14 09:16:06;;;;;;;68.80;42.50;;;;;;;5.49;87.09;101210.41;87983;1287;98191;-71
2021/11/14 09:18:19;;;;;;;70.90;42.30;;;;;;;5.48;87.04;101210.45;87997;1294;89497;-72
2021/11/14 09:20:32;;;;;;;66.80;41.00;;;;;;;5.48;86.87;101210.34;88004;1287;95630;-73
2021/11/14 09:22:46;;;;;;;72.20;41.70;;;;;;;5.48;86.76;101211.01;87814;1292;81740;-73
2021/11/14 09:24:55;;;;;;;72.50;41.30;;;;;;;5.42;86.65;101208.91;88015;1288;81622;-71
2021/11/14 09:27:06;;;;;;;87.40;50.80;;;;;;;5.33;86.58;101211.39;88018;1287;99206;-71
2021/11/14 09:29:19;;;;;;;72.40;44.50;;;;;;;5.33;86.73;101210.89;88003;1287;89037;-73
2021/11/14 09:31:31;;;;;;;73.80;41.70;;;;;;;5.34;86.69;101213.82;87974;1284;94018;-72
2021/11/14 09:33:42;;;;;;;74.60;41.90;;;;;;;5.35;86.73;101217.89;87979;1287;81497;-72
2021/11/14 09:35:55;;;;;;;79.30;45.60;;;;;;;5.42;86.64;101223.01;87934;1292;82929;-72
2021/11/14 09:38:08;;;;;;;83.10;48.10;;;;;;;5.45;86.54;101223.95;88018;1287;100354;-72
2021/11/14 09:40:18;;;;;;;89.20;56.20;;;;;;;5.43;86.44;101225.61;88017;1294;88989;-77
2021/11/14 09:42:30;;;;;;;80.00;46.00;;;;;;;5.42;86.29;101226.02;87996;1287;94835;-78
2021/11/14 09:44:42;;;;;;;79.50;42.90;;;;;;;5.36;86.33;101223.98;88024;1287;78209;-79
2021/11/14 09:46:58;;;;;;;73.10;41.00;;;;;;;5.38;86.27;101227.98;88027;1287;81209;-77
2021/11/14 09:49:09;;;;;;;74.90;41.90;;;;;;;5.39;86.12;101226.45;87884;1291;99922;-77
2021/11/14 09:51:19;;;;;;;71.00;40.50;;;;;;;5.38;86.18;101227.59;88003;1290;88495;-76
2021/11/14 09:53:35;;;;;;;76.70;41.10;;;;;;;5.39;86.11;101231.63;87854;1290;95185;-76
2021/11/14 09:55:45;;;;;;;78.00;43.20;;;;;;;5.41;86.09;101234.17;88085;1284;79961;-77
2021/11/14 09:57:57;;;;;;;71.60;41.40;;;;;;;5.45;86.13;101231.45;88026;1287;81305;-78
2021/11/14 10:00:16;;;;;;;73.80;41.60;;;;;;;5.44;86.15;101235.85;88016;1294;98249;-76
2021/11/14 10:02:25;;;;;;;79.50;44.20;;;;;;;5.50;86.21;101232.63;88075;1288;88595;-78
2021/11/14 10:04:38;;;;;;;79.80;45.60;;;;;;;5.53;86.09;101236.49;88028;1288;95230;-75